createdAt,value
2023-05-05T00:01:10.290Z,99876.59
2023-05-05T00:03:46.639Z,99877.88
2023-05-05T00:06:20.074Z,99874.72
2023-05-05T00:09:00.952Z,99871.00
2023-05-05T00:11:31.865Z,99877.25
2023-05-05T00:14:01.550Z,99872.41
2023-05-05T00:16:32.382Z,99868.69
2023-05-05T00:19:01.198Z,99869.28
2023-05-05T00:21:46.753Z,99868.34
2023-05-05T00:24:15.411Z,99864.38
2023-05-05T00:26:49.886Z,99839.28
2023-05-05T00:29:20.047Z,99850.19
2023-05-05T00:31:57.286Z,99845.72
2023-05-05T00:34:27.898Z,99840.88
2023-05-05T00:37:06.012Z,99837.00
2023-05-05T00:39:36.485Z,99843.56
2023-05-05T00:42:04.779Z,99822.94
2023-05-05T00:44:38.563Z,99827.72
2023-05-05T00:47:10.469Z,99837.59
2023-05-05T00:49:40.861Z,99830.97
2023-05-05T00:52:12.673Z,99827.03
2023-05-05T00:54:41.305Z,99828.75
2023-05-05T00:57:11.197Z,99819.75
2023-05-05T00:59:43.134Z,99829.66
2023-05-05T01:02:20.728Z,99821.47
2023-05-05T01:04:49.228Z,99820.84
2023-05-05T01:07:35.221Z,99816.84
2023-05-05T01:10:19.662Z,99814.44
2023-05-05T01:13:00.346Z,99822.06
2023-05-05T01:15:35.621Z,99821.22
2023-05-05T01:18:11.394Z,99821.31
2023-05-05T01:20:46.897Z,99827.34
2023-05-05T01:23:22.695Z,99827.63
2023-05-05T01:26:06.123Z,99821.00
2023-05-05T01:28:58.986Z,99818.94
2023-05-05T01:31:51.940Z,99826.34
2023-05-05T01:34:27.823Z,99838.97
2023-05-05T01:37:10.029Z,99831.94
2023-05-05T01:39:42.216Z,99821.75
2023-05-05T01:42:20.794Z,99812.03
2023-05-05T01:44:50.620Z,99816.31
2023-05-05T01:47:24.128Z,99820.00
2023-05-05T01:49:56.107Z,99802.56
2023-05-05T01:52:28.273Z,99822.72
2023-05-05T01:55:03.599Z,99813.38
2023-05-05T01:57:32.560Z,99817.22
2023-05-05T02:00:08.478Z,99807.72
2023-05-05T02:02:46.869Z,99813.81
2023-05-05T02:05:26.608Z,99805.78
2023-05-05T02:08:00.242Z,99808.00
2023-05-05T02:10:30.450Z,99812.31
2023-05-05T02:13:09.916Z,99803.38
2023-05-05T02:15:53.017Z,99795.59
2023-05-05T02:18:27.273Z,99798.66
2023-05-05T02:20:55.953Z,99792.59
2023-05-05T02:23:26.491Z,99797.72
2023-05-05T02:26:07.840Z,99799.69
2023-05-05T02:28:42.588Z,99796.97
2023-05-05T02:31:13.575Z,99795.97
2023-05-05T02:33:47.689Z,99797.13
2023-05-05T02:36:21.705Z,99790.75
2023-05-05T02:39:03.406Z,99793.81
2023-05-05T02:41:40.401Z,99786.53
2023-05-05T02:44:19.916Z,99782.13
2023-05-05T02:46:49.286Z,99794.09
2023-05-05T02:49:24.910Z,99794.34
2023-05-05T02:52:19.627Z,99794.34
2023-05-05T02:55:03.131Z,99793.84
2023-05-05T02:57:45.103Z,99796.16
2023-05-05T03:00:18.626Z,99803.47
2023-05-05T03:02:56.776Z,99800.56
2023-05-05T03:05:30.004Z,99800.78
2023-05-05T03:08:04.792Z,99799.84
2023-05-05T03:10:43.194Z,99801.75
2023-05-05T03:13:16.021Z,99805.06
2023-05-05T03:15:49.446Z,99809.28
2023-05-05T03:18:22.433Z,99807.50
2023-05-05T03:21:07.991Z,99806.41
2023-05-05T03:23:48.144Z,99805.13
2023-05-05T03:26:24.699Z,99789.06
2023-05-05T03:29:02.577Z,99807.50
2023-05-05T03:31:40.239Z,99800.50
2023-05-05T03:34:11.027Z,99807.56
2023-05-05T03:36:49.460Z,99803.75
2023-05-05T03:39:20.665Z,99799.06
2023-05-05T03:41:54.875Z,99805.75
2023-05-05T03:44:25.622Z,99795.59
2023-05-05T03:46:55.690Z,99801.25
2023-05-05T03:49:30.569Z,99804.50
2023-05-05T03:52:03.457Z,99808.19
2023-05-05T03:54:32.418Z,99809.25
2023-05-05T03:57:02.928Z,99809.97
2023-05-05T03:59:32.457Z,99824.28
2023-05-05T04:02:02.056Z,99811.53
2023-05-05T04:04:30.586Z,99821.22
2023-05-05T04:07:01.673Z,99816.41
2023-05-05T04:09:30.359Z,99820.75
2023-05-05T04:12:06.951Z,99818.81
2023-05-05T04:14:38.328Z,99825.28
2023-05-05T04:17:09.158Z,99825.38
2023-05-05T04:19:37.659Z,99827.09
2023-05-05T04:22:12.458Z,99836.16
2023-05-05T04:24:43.583Z,99823.84
2023-05-05T04:27:15.442Z,99824.00
2023-05-05T04:29:45.670Z,99834.75
2023-05-05T04:32:19.701Z,99834.34
2023-05-05T04:34:49.371Z,99830.34
2023-05-05T04:37:22.217Z,99832.38
2023-05-05T04:39:52.021Z,99835.13
2023-05-05T04:42:21.760Z,99844.03
2023-05-05T04:44:55.342Z,99839.28
2023-05-05T04:47:25.491Z,99847.19
2023-05-05T04:49:56.062Z,99848.72
2023-05-05T04:52:28.378Z,99850.69
2023-05-05T04:54:57.655Z,99865.63
2023-05-05T04:57:27.891Z,99867.53
2023-05-05T04:59:58.611Z,99873.03
2023-05-05T05:02:30.154Z,99877.03
2023-05-05T05:05:01.421Z,99877.16
2023-05-05T05:07:48.974Z,99869.31
2023-05-05T05:10:23.607Z,99870.50
2023-05-05T05:12:57.915Z,99878.53
2023-05-05T05:15:28.147Z,99886.88
2023-05-05T05:17:59.480Z,99892.19
2023-05-05T05:20:31.564Z,99891.53
2023-05-05T05:23:02.195Z,99895.50
2023-05-05T05:25:35.621Z,99889.38
2023-05-05T05:28:10.532Z,99892.53
2023-05-05T05:30:49.604Z,99903.75
2023-05-05T05:33:21.309Z,99886.56
2023-05-05T05:35:53.625Z,99896.47
2023-05-05T05:38:26.887Z,99905.09
2023-05-05T05:41:08.287Z,99911.78
2023-05-05T05:43:50.047Z,99906.44
2023-05-05T05:46:21.611Z,99901.69
2023-05-05T05:48:51.923Z,99903.53
2023-05-05T05:51:22.538Z,99916.31
2023-05-05T05:54:00.853Z,99912.44
2023-05-05T05:56:32.839Z,99904.16
2023-05-05T05:59:01.902Z,99901.91
2023-05-05T06:01:32.719Z,99891.13
2023-05-05T06:04:09.364Z,99899.78
2023-05-05T06:06:41.564Z,99888.38
2023-05-05T06:09:19.889Z,99899.09
2023-05-05T06:11:50.828Z,99909.00
2023-05-05T06:14:28.475Z,99910.13
2023-05-05T06:16:58.796Z,99904.75
2023-05-05T06:19:31.447Z,99912.88
2023-05-05T06:22:00.940Z,99909.50
2023-05-05T06:24:32.621Z,99908.03
2023-05-05T06:27:06.682Z,99907.97
2023-05-05T06:29:38.244Z,99907.56
2023-05-05T06:32:09.549Z,99899.53
2023-05-05T06:34:40.050Z,99903.25
2023-05-05T06:37:11.620Z,99893.19
2023-05-05T06:39:48.658Z,99886.78
2023-05-05T06:42:18.240Z,99898.78
2023-05-05T06:44:58.131Z,99898.84
2023-05-05T06:47:27.400Z,99898.41
2023-05-05T06:49:57.769Z,99904.22
2023-05-05T06:52:28.897Z,99913.00
2023-05-05T06:54:59.242Z,99910.50
2023-05-05T06:57:31.057Z,99921.22
2023-05-05T07:00:03.499Z,99914.00
2023-05-05T07:02:34.107Z,99912.78
2023-05-05T07:05:06.078Z,99911.75
2023-05-05T07:07:44.660Z,99917.78
2023-05-05T07:10:20.065Z,99912.56
2023-05-05T07:12:49.938Z,99908.00
2023-05-05T07:15:27.430Z,99915.59
2023-05-05T07:17:57.092Z,99907.84
2023-05-05T07:20:26.157Z,99919.09
2023-05-05T07:22:56.594Z,99906.47
2023-05-05T07:25:30.861Z,99913.53
2023-05-05T07:28:00.668Z,99914.56
2023-05-05T07:30:29.982Z,99909.88
2023-05-05T07:33:06.970Z,99902.47
2023-05-05T07:35:36.401Z,99906.00
2023-05-05T07:38:10.989Z,99899.31
2023-05-05T07:40:49.003Z,99896.09
2023-05-05T07:43:27.706Z,99897.28
2023-05-05T07:46:01.166Z,99898.94
2023-05-05T07:48:30.200Z,99902.81
2023-05-05T07:50:58.986Z,99897.59
2023-05-05T07:53:28.081Z,99900.44
2023-05-05T07:56:03.507Z,99901.44
2023-05-05T07:58:36.720Z,99907.38
2023-05-05T08:01:07.076Z,99906.19
2023-05-05T08:03:39.556Z,99907.00
2023-05-05T08:06:13.564Z,99901.28
2023-05-05T08:08:50.999Z,99887.16
2023-05-05T08:11:28.995Z,99885.94
2023-05-05T08:14:01.761Z,99903.53
2023-05-05T08:16:33.349Z,99889.41
2023-05-05T08:19:21.204Z,99899.78
2023-05-05T08:22:01.464Z,99901.31
2023-05-05T08:24:30.887Z,99894.41
2023-05-05T08:27:14.261Z,99877.22
2023-05-05T08:29:42.692Z,99875.03
2023-05-05T08:32:13.818Z,99891.22
2023-05-05T08:34:41.768Z,99879.19
2023-05-05T08:37:11.990Z,99877.53
2023-05-05T08:39:40.491Z,99885.56
2023-05-05T08:42:29.279Z,99893.56
2023-05-05T08:45:06.900Z,99884.97
2023-05-05T08:47:36.009Z,99898.59
2023-05-05T08:50:07.363Z,99890.56
2023-05-05T08:52:40.821Z,99882.41
2023-05-05T08:55:18.935Z,99880.97
2023-05-05T08:58:04.660Z,99877.06
2023-05-05T09:00:40.771Z,99880.13
2023-05-05T09:03:09.077Z,99877.91
2023-05-05T09:05:48.129Z,99881.78
2023-05-05T09:08:27.493Z,99883.63
2023-05-05T09:10:58.997Z,99869.94
2023-05-05T09:13:40.459Z,99878.03
2023-05-05T09:16:10.446Z,99866.34
2023-05-05T09:18:42.229Z,99862.56
2023-05-05T09:21:28.417Z,99855.47
2023-05-05T09:24:11.646Z,99850.91
2023-05-05T09:26:46.641Z,99848.22
2023-05-05T09:29:21.062Z,99856.19
2023-05-05T09:32:05.852Z,99864.97
2023-05-05T09:34:43.900Z,99867.78
2023-05-05T09:37:12.954Z,99866.66
2023-05-05T09:39:58.628Z,99870.78
2023-05-05T09:42:29.142Z,99864.25
2023-05-05T09:45:03.321Z,99862.88
2023-05-05T09:47:40.353Z,99859.72
2023-05-05T09:50:11.465Z,99851.44
2023-05-05T09:52:48.544Z,99851.63
2023-05-05T09:55:28.761Z,99854.06
2023-05-05T09:57:57.358Z,99853.81
2023-05-05T10:00:51.921Z,99851.00
2023-05-05T10:03:23.495Z,99845.09
2023-05-05T10:06:02.257Z,99837.06
2023-05-05T10:08:35.896Z,99845.47
2023-05-05T10:11:07.656Z,99851.06
2023-05-05T10:13:38.173Z,99841.09
2023-05-05T10:16:10.292Z,99849.19
2023-05-05T10:18:51.272Z,99841.38
2023-05-05T10:21:23.872Z,99848.38
2023-05-05T10:24:01.486Z,99850.16
2023-05-05T10:26:38.191Z,99842.31
2023-05-05T10:29:08.877Z,99835.63
2023-05-05T10:31:52.167Z,99839.75
2023-05-05T10:34:31.625Z,99831.25
2023-05-05T10:37:09.108Z,99832.94
2023-05-05T10:39:39.592Z,99835.53
2023-05-05T10:42:10.180Z,99819.25
2023-05-05T10:44:43.775Z,99819.50
2023-05-05T10:47:13.695Z,99820.16
2023-05-05T10:49:52.431Z,99816.69
2023-05-05T10:52:30.616Z,99805.41
2023-05-05T10:55:05.977Z,99808.69
2023-05-05T10:57:46.249Z,99794.53
2023-05-05T11:00:49.925Z,99794.94
2023-05-05T11:03:24.826Z,99783.44
2023-05-05T11:06:15.751Z,99785.34
2023-05-05T11:08:51.722Z,99788.63
2023-05-05T11:11:59.068Z,99790.69
2023-05-05T11:14:30.313Z,99789.03
2023-05-05T11:16:59.583Z,99787.94
2023-05-05T11:19:49.094Z,99787.91
2023-05-05T11:22:28.315Z,99775.56
2023-05-05T11:24:58.573Z,99778.00
2023-05-05T11:28:08.224Z,99770.91
2023-05-05T11:30:37.396Z,99765.69
2023-05-05T11:33:25.845Z,99763.53
2023-05-05T11:36:06.077Z,99759.53
2023-05-05T11:39:01.616Z,99755.03
2023-05-05T11:42:28.643Z,99756.59
2023-05-05T11:45:00.052Z,99741.81
2023-05-05T11:47:33.219Z,99741.28
2023-05-05T11:50:20.880Z,99748.25
2023-05-05T11:52:54.111Z,99740.84
2023-05-05T11:55:33.758Z,99734.72
2023-05-05T11:58:02.919Z,99733.28
2023-05-05T12:00:35.069Z,99744.31
2023-05-05T12:03:06.998Z,99739.06
2023-05-05T12:05:37.176Z,99723.53
2023-05-05T12:08:28.158Z,99727.91
2023-05-05T12:11:08.984Z,99737.84
2023-05-05T12:13:44.371Z,99732.72
2023-05-05T12:16:29.206Z,99735.41
2023-05-05T12:19:07.425Z,99739.88
2023-05-05T12:21:36.651Z,99726.94
2023-05-05T12:24:10.916Z,99732.13
2023-05-05T12:26:50.229Z,99729.84
2023-05-05T12:29:26.974Z,99724.84
2023-05-05T12:32:00.209Z,99724.34
2023-05-05T12:34:31.328Z,99719.50
2023-05-05T12:37:01.502Z,99717.59
2023-05-05T12:39:37.388Z,99710.56
2023-05-05T12:42:14.396Z,99708.31
2023-05-05T12:44:46.879Z,99718.47
2023-05-05T12:47:17.711Z,99714.19
2023-05-05T12:49:54.827Z,99707.94
2023-05-05T12:52:24.534Z,99704.34
2023-05-05T12:54:59.412Z,99697.81
2023-05-05T12:57:28.454Z,99691.00
2023-05-05T13:00:06.497Z,99682.44
2023-05-05T13:02:38.524Z,99683.59
2023-05-05T13:05:10.424Z,99682.41
2023-05-05T13:07:54.789Z,99676.47
2023-05-05T13:10:31.088Z,99682.06
2023-05-05T13:13:04.624Z,99670.38
2023-05-05T13:15:36.121Z,99665.13
2023-05-05T13:18:04.309Z,99668.88
2023-05-05T13:20:33.316Z,99657.19
2023-05-05T13:23:11.270Z,99651.28
2023-05-05T13:25:43.868Z,99649.25
2023-05-05T13:28:12.138Z,99643.31
2023-05-05T13:30:41.904Z,99639.41
2023-05-05T13:33:12.322Z,99640.66
2023-05-05T13:35:42.338Z,99631.59
2023-05-05T13:38:20.052Z,99631.50
2023-05-05T13:40:54.269Z,99635.09
2023-05-05T13:43:23.661Z,99624.22
2023-05-05T13:46:02.810Z,99622.28
2023-05-05T13:48:40.514Z,99607.06
2023-05-05T13:51:16.587Z,99605.88
2023-05-05T13:53:51.276Z,99611.50
2023-05-05T13:56:28.716Z,99594.84
2023-05-05T13:58:59.559Z,99596.38
2023-05-05T14:01:27.681Z,99590.78
2023-05-05T14:03:59.448Z,99586.28
2023-05-05T14:06:35.463Z,99594.97
2023-05-05T14:09:08.012Z,99596.34
2023-05-05T14:11:42.707Z,99576.91
2023-05-05T14:14:11.612Z,99578.97
2023-05-05T14:16:50.365Z,99573.22
2023-05-05T14:19:21.530Z,99579.44
2023-05-05T14:21:51.463Z,99577.06
2023-05-05T14:24:23.272Z,99581.47
2023-05-05T14:26:58.916Z,99573.53
2023-05-05T14:29:36.468Z,99572.66
2023-05-05T14:32:08.616Z,99565.09
2023-05-05T14:34:37.692Z,99571.59
2023-05-05T14:37:08.475Z,99567.38
2023-05-05T14:39:38.890Z,99558.72
2023-05-05T14:42:19.788Z,99555.72
2023-05-05T14:44:58.362Z,99556.25
2023-05-05T14:47:29.579Z,99551.47
2023-05-05T14:49:57.902Z,99564.41
2023-05-05T14:52:27.315Z,99567.31
2023-05-05T14:54:58.648Z,99563.25
2023-05-05T14:57:30.837Z,99567.72
2023-05-05T14:59:59.281Z,99550.59
2023-05-05T15:02:29.647Z,99549.91
2023-05-05T15:05:02.763Z,99551.59
2023-05-05T15:07:39.062Z,99558.22
2023-05-05T15:10:10.945Z,99552.53
2023-05-05T15:12:50.366Z,99557.84
2023-05-05T15:15:21.820Z,99544.34
2023-05-05T15:17:50.241Z,99555.88
2023-05-05T15:20:22.115Z,99549.84
2023-05-05T15:23:07.250Z,99548.94
2023-05-05T15:25:37.487Z,99552.75
2023-05-05T15:28:11.931Z,99554.56
2023-05-05T15:30:43.959Z,99562.22
2023-05-05T15:33:14.683Z,99548.28
2023-05-05T15:35:57.024Z,99567.03
2023-05-05T15:38:29.047Z,99555.84
2023-05-05T15:40:59.739Z,99559.06
2023-05-05T15:43:29.644Z,99556.16
2023-05-05T15:46:01.460Z,99553.00
2023-05-05T15:48:33.156Z,99539.94
2023-05-05T15:51:09.958Z,99549.34
2023-05-05T15:53:49.846Z,99549.41
2023-05-05T15:56:28.334Z,99555.81
2023-05-05T15:59:04.242Z,99544.28
2023-05-05T16:01:36.302Z,99548.69
2023-05-05T16:04:06.962Z,99537.94
2023-05-05T16:06:37.633Z,99541.22
2023-05-05T16:09:16.068Z,99544.25
2023-05-05T16:11:44.337Z,99550.50
2023-05-05T16:14:19.699Z,99538.69
2023-05-05T16:16:50.697Z,99543.41
2023-05-05T16:19:20.857Z,99541.22
2023-05-05T16:21:52.327Z,99545.06
2023-05-05T16:24:22.990Z,99537.88
2023-05-05T16:26:55.793Z,99527.28
2023-05-05T16:29:27.155Z,99539.09
2023-05-05T16:31:56.730Z,99536.88
2023-05-05T16:34:26.553Z,99531.25
2023-05-05T16:36:55.327Z,99536.72
2023-05-05T16:39:27.864Z,99537.13
2023-05-05T16:41:57.772Z,99531.81
2023-05-05T16:44:29.223Z,99514.91
2023-05-05T16:46:59.387Z,99524.94
2023-05-05T16:49:28.753Z,99517.81
2023-05-05T16:51:58.361Z,99518.03
2023-05-05T16:54:26.382Z,99515.84
2023-05-05T16:57:00.823Z,99510.91
2023-05-05T16:59:37.047Z,99509.06
2023-05-05T17:02:14.284Z,99513.13
2023-05-05T17:04:52.468Z,99521.16
2023-05-05T17:07:23.853Z,99512.31
2023-05-05T17:09:52.126Z,99507.34
2023-05-05T17:12:26.257Z,99504.66
2023-05-05T17:15:19.202Z,99509.38
2023-05-05T17:17:49.665Z,99498.41
2023-05-05T17:20:28.613Z,99509.72
2023-05-05T17:23:00.154Z,99515.97
2023-05-05T17:25:30.090Z,99518.59
2023-05-05T17:27:58.506Z,99506.56
2023-05-05T17:30:31.865Z,99506.66
2023-05-05T17:33:01.299Z,99498.22
2023-05-05T17:35:32.149Z,99504.63
2023-05-05T17:38:00.761Z,99512.38
2023-05-05T17:40:32.496Z,99512.72
2023-05-05T17:43:01.593Z,99508.22
2023-05-05T17:45:38.740Z,99511.59
2023-05-05T17:48:10.357Z,99519.50
2023-05-05T17:50:41.283Z,99518.41
2023-05-05T17:53:12.013Z,99517.63
2023-05-05T17:55:40.209Z,99518.78
2023-05-05T17:58:08.704Z,99519.97
2023-05-05T18:00:43.617Z,99513.38
2023-05-05T18:03:20.861Z,99525.28
2023-05-05T18:05:50.610Z,99518.25
2023-05-05T18:08:21.298Z,99511.44
2023-05-05T18:10:51.005Z,99507.44
2023-05-05T18:13:21.051Z,99522.81
2023-05-05T18:16:00.231Z,99521.97
2023-05-05T18:18:28.729Z,99527.06
2023-05-05T18:20:57.354Z,99527.69
2023-05-05T18:23:27.232Z,99530.88
2023-05-05T18:26:00.600Z,99530.69
2023-05-05T18:28:31.401Z,99531.53
2023-05-05T18:31:06.565Z,99538.66
2023-05-05T18:33:35.791Z,99544.09
2023-05-05T18:36:09.648Z,99537.00
2023-05-05T18:38:43.167Z,99546.59
2023-05-05T18:41:22.147Z,99543.06
2023-05-05T18:43:51.599Z,99550.19
2023-05-05T18:46:33.659Z,99550.41
2023-05-05T18:49:07.265Z,99547.47
2023-05-05T18:51:37.247Z,99556.47
2023-05-05T18:54:06.203Z,99548.97
2023-05-05T18:56:40.187Z,99551.06
2023-05-05T18:59:08.878Z,99551.47
2023-05-05T19:01:39.615Z,99555.44
2023-05-05T19:04:26.734Z,99555.88
2023-05-05T19:06:59.637Z,99557.06
2023-05-05T19:09:29.649Z,99556.25
2023-05-05T19:12:01.542Z,99553.97
2023-05-05T19:14:33.258Z,99550.41
2023-05-05T19:17:03.615Z,99560.41
2023-05-05T19:19:38.892Z,99560.38
2023-05-05T19:22:09.612Z,99562.91
2023-05-05T19:24:38.313Z,99557.03
2023-05-05T19:27:16.446Z,99550.16
2023-05-05T19:29:51.971Z,99560.13
2023-05-05T19:32:24.479Z,99557.03
2023-05-05T19:34:54.926Z,99542.63
2023-05-05T19:37:26.387Z,99537.38
2023-05-05T19:39:57.582Z,99551.34
2023-05-05T19:42:28.116Z,99550.03
2023-05-05T19:44:57.173Z,99551.75
2023-05-05T19:47:28.612Z,99549.84
2023-05-05T19:49:59.781Z,99549.78
2023-05-05T19:52:39.317Z,99554.63
2023-05-05T19:55:16.764Z,99551.78
2023-05-05T19:57:54.607Z,99551.22
2023-05-05T20:00:25.903Z,99552.44
2023-05-05T20:03:01.738Z,99537.25
2023-05-05T20:05:39.280Z,99540.78
2023-05-05T20:08:09.256Z,99535.97
2023-05-05T20:10:46.741Z,99531.16
2023-05-05T20:13:27.571Z,99536.59
2023-05-05T20:16:01.284Z,99526.63
2023-05-05T20:18:44.399Z,99533.88
2023-05-05T20:21:13.264Z,99527.81
2023-05-05T20:23:47.816Z,99526.91
2023-05-05T20:26:19.552Z,99522.50
2023-05-05T20:28:54.612Z,99509.53
2023-05-05T20:31:24.567Z,99511.81
2023-05-05T20:34:01.309Z,99517.06
2023-05-05T20:36:32.175Z,99504.97
2023-05-05T20:39:03.220Z,99508.16
2023-05-05T20:41:33.881Z,99491.50
2023-05-05T20:44:02.780Z,99509.16
2023-05-05T20:46:34.423Z,99499.19
2023-05-05T20:49:04.236Z,99514.94
2023-05-05T20:51:36.577Z,99507.69
2023-05-05T20:54:07.682Z,99508.31
2023-05-05T20:56:42.358Z,99508.81
2023-05-05T20:59:28.293Z,99510.53
2023-05-05T21:01:58.498Z,99508.50
2023-05-05T21:04:35.329Z,99511.91
2023-05-05T21:07:06.059Z,99506.00
2023-05-05T21:09:36.420Z,99511.16
2023-05-05T21:12:06.506Z,99506.69
2023-05-05T21:14:37.820Z,99500.91
2023-05-05T21:17:05.848Z,99504.69
2023-05-05T21:19:35.828Z,99508.44
2023-05-05T21:22:04.425Z,99502.75
2023-05-05T21:24:33.186Z,99499.66
2023-05-05T21:27:01.168Z,99494.19
2023-05-05T21:29:34.307Z,99501.63
2023-05-05T21:32:07.106Z,99500.13
2023-05-05T21:34:47.737Z,99489.75
2023-05-05T21:37:19.369Z,99494.13
2023-05-05T21:39:50.675Z,99484.50
2023-05-05T21:42:28.046Z,99489.25
2023-05-05T21:44:59.653Z,99484.69
2023-05-05T21:47:29.140Z,99484.97
2023-05-05T21:50:02.488Z,99481.44
2023-05-05T21:52:33.349Z,99464.66
2023-05-05T21:55:04.439Z,99484.06
2023-05-05T21:57:38.439Z,99472.75
2023-05-05T22:00:09.508Z,99482.97
2023-05-05T22:02:51.388Z,99485.75
2023-05-05T22:05:21.956Z,99485.63
2023-05-05T22:07:51.574Z,99484.97
2023-05-05T22:10:19.832Z,99487.34
2023-05-05T22:12:52.551Z,99485.94
2023-05-05T22:15:25.369Z,99488.34
2023-05-05T22:17:57.040Z,99489.44
2023-05-05T22:20:36.090Z,99487.03
2023-05-05T22:23:05.220Z,99486.25
2023-05-05T22:25:42.828Z,99476.22
2023-05-05T22:28:10.848Z,99489.94
2023-05-05T22:30:48.624Z,99486.84
2023-05-05T22:33:18.819Z,99478.59
2023-05-05T22:36:00.001Z,99466.84
2023-05-05T22:38:31.523Z,99455.84
2023-05-05T22:41:01.352Z,99457.16
2023-05-05T22:43:31.455Z,99460.59
2023-05-05T22:46:02.506Z,99459.09
2023-05-05T22:48:39.768Z,99451.06
2023-05-05T22:51:19.170Z,99452.41
2023-05-05T22:53:55.777Z,99453.31
2023-05-05T22:56:23.933Z,99450.28
2023-05-05T22:58:54.953Z,99451.25
2023-05-05T23:01:24.327Z,99453.41
2023-05-05T23:03:54.639Z,99447.59
2023-05-05T23:06:25.682Z,99456.84
2023-05-05T23:09:01.622Z,99438.41
2023-05-05T23:11:31.524Z,99457.44
2023-05-05T23:14:03.312Z,99450.22
2023-05-05T23:16:32.351Z,99444.47
2023-05-05T23:19:07.280Z,99444.88
2023-05-05T23:21:52.125Z,99451.25
2023-05-05T23:24:23.644Z,99438.69
2023-05-05T23:26:52.980Z,99439.06
2023-05-05T23:29:24.859Z,99441.56
2023-05-05T23:31:56.048Z,99436.78
2023-05-05T23:34:27.923Z,99435.66
2023-05-05T23:37:03.446Z,99427.91
2023-05-05T23:39:38.160Z,99420.38
2023-05-05T23:42:08.257Z,99415.59
2023-05-05T23:44:39.010Z,99421.47
2023-05-05T23:47:16.891Z,99421.31
2023-05-05T23:49:44.908Z,99417.03
2023-05-05T23:52:16.117Z,99406.44
2023-05-05T23:54:47.990Z,99407.28
2023-05-05T23:57:28.202Z,99403.25
2023-05-05T23:59:59.948Z,99405.47
